sensor_id;sensor_type;location;lat;lon;timestamp;P1;durP1;ratioP1;P2;durP2;ratioP2
78205;SDS011;67480;48.920;12.880;2023-03-16T00:00:44;2.38;;;2.17;;
78205;SDS011;67480;48.920;12.880;2023-03-16T00:03:10;2.40;;;2.20;;
78205;SDS011;67480;48.920;12.880;2023-03-16T00:05:36;2.40;;;2.20;;
78205;SDS011;67480;48.920;12.880;2023-03-16T00:08:02;2.55;;;2.25;;
78205;SDS011;67480;48.920;12.880;2023-03-16T00:10:27;2.45;;;2.25;;
78205;SDS011;67480;48.920;12.880;2023-03-16T00:12:53;1.90;;;1.80;;
78205;SDS011;67480;48.920;12.880;2023-03-16T00:15:19;2.70;;;2.50;;
78205;SDS011;67480;48.920;12.880;2023-03-16T00:17:45;5.43;;;3.80;;
78205;SDS011;67480;48.920;12.880;2023-03-16T00:20:14;3.15;;;2.63;;
78205;SDS011;67480;48.920;12.880;2023-03-16T00:22:40;2.50;;;2.30;;
78205;SDS011;67480;48.920;12.880;2023-03-16T00:25:06;3.08;;;2.78;;
78205;SDS011;67480;48.920;12.880;2023-03-16T00:27:33;3.38;;;2.40;;
78205;SDS011;67480;48.920;12.880;2023-03-16T00:29:59;2.92;;;2.72;;
78205;SDS011;67480;48.920;12.880;2023-03-16T00:32:28;3.28;;;2.97;;
78205;SDS011;67480;48.920;12.880;2023-03-16T00:34:56;3.78;;;2.85;;
78205;SDS011;67480;48.920;12.880;2023-03-16T00:37:22;3.25;;;2.70;;
78205;SDS011;67480;48.920;12.880;2023-03-16T00:39:49;2.67;;;2.47;;
78205;SDS011;67480;48.920;12.880;2023-03-16T00:42:15;4.25;;;2.70;;
78205;SDS011;67480;48.920;12.880;2023-03-16T00:44:41;2.63;;;2.42;;
78205;SDS011;67480;48.920;12.880;2023-03-16T00:47:07;2.55;;;2.35;;
78205;SDS011;67480;48.920;12.880;2023-03-16T00:49:33;2.60;;;2.10;;
78205;SDS011;67480;48.920;12.880;2023-03-16T00:52:00;2.13;;;1.92;;
78205;SDS011;67480;48.920;12.880;2023-03-16T00:54:27;3.00;;;2.20;;
78205;SDS011;67480;48.920;12.880;2023-03-16T00:56:53;2.97;;;2.40;;
78205;SDS011;67480;48.920;12.880;2023-03-16T00:59:18;2.60;;;2.40;;
78205;SDS011;67480;48.920;12.880;2023-03-16T01:01:45;2.40;;;2.13;;
78205;SDS011;67480;48.920;12.880;2023-03-16T01:04:11;2.60;;;2.40;;
78205;SDS011;67480;48.920;12.880;2023-03-16T01:06:36;3.35;;;2.78;;
78205;SDS011;67480;48.920;12.880;2023-03-16T01:09:01;6.25;;;2.50;;
78205;SDS011;67480;48.920;12.880;2023-03-16T01:11:29;3.40;;;2.42;;
78205;SDS011;67480;48.920;12.880;2023-03-16T01:13:57;2.00;;;1.85;;
78205;SDS011;67480;48.920;12.880;2023-03-16T01:16:23;2.95;;;1.90;;
78205;SDS011;67480;48.920;12.880;2023-03-16T01:18:49;2.38;;;2.03;;
78205;SDS011;67480;48.920;12.880;2023-03-16T01:21:16;2.17;;;1.98;;
78205;SDS011;67480;48.920;12.880;2023-03-16T01:23:42;2.35;;;2.00;;
78205;SDS011;67480;48.920;12.880;2023-03-16T01:26:08;2.28;;;1.70;;
78205;SDS011;67480;48.920;12.880;2023-03-16T01:28:33;3.20;;;1.92;;
78205;SDS011;67480;48.920;12.880;2023-03-16T01:31:00;3.08;;;2.08;;
78205;SDS011;67480;48.920;12.880;2023-03-16T01:33:27;3.13;;;1.83;;
78205;SDS011;67480;48.920;12.880;2023-03-16T01:35:58;2.13;;;1.98;;
78205;SDS011;67480;48.920;12.880;2023-03-16T01:38:25;1.60;;;1.50;;
78205;SDS011;67480;48.920;12.880;2023-03-16T01:40:51;1.92;;;1.70;;
78205;SDS011;67480;48.920;12.880;2023-03-16T01:43:18;2.20;;;2.00;;
78205;SDS011;67480;48.920;12.880;2023-03-16T01:48:22;2.17;;;2.03;;
78205;SDS011;67480;48.920;12.880;2023-03-16T01:50:50;2.20;;;2.00;;
78205;SDS011;67480;48.920;12.880;2023-03-16T01:53:17;2.38;;;2.17;;
78205;SDS011;67480;48.920;12.880;2023-03-16T01:55:44;2.20;;;2.00;;
78205;SDS011;67480;48.920;12.880;2023-03-16T01:58:10;2.75;;;2.30;;
78205;SDS011;67480;48.920;12.880;2023-03-16T02:00:38;2.78;;;2.40;;
78205;SDS011;67480;48.920;12.880;2023-03-16T02:03:12;2.63;;;2.42;;
78205;SDS011;67480;48.920;12.880;2023-03-16T02:06:00;2.20;;;2.00;;
78205;SDS011;67480;48.920;12.880;2023-03-16T02:08:30;2.33;;;2.10;;
78205;SDS011;67480;48.920;12.880;2023-03-16T02:10:57;2.50;;;2.22;;
78205;SDS011;67480;48.920;12.880;2023-03-16T02:13:23;2.00;;;1.80;;
78205;SDS011;67480;48.920;12.880;2023-03-16T02:15:50;4.70;;;2.40;;
78205;SDS011;67480;48.920;12.880;2023-03-16T02:18:16;2.85;;;1.98;;
78205;SDS011;67480;48.920;12.880;2023-03-16T02:20:50;2.47;;;2.28;;
78205;SDS011;67480;48.920;12.880;2023-03-16T02:23:21;3.47;;;2.10;;
78205;SDS011;67480;48.920;12.880;2023-03-16T02:25:54;3.72;;;1.95;;
78205;SDS011;67480;48.920;12.880;2023-03-16T02:28:30;2.45;;;1.65;;
78205;SDS011;67480;48.920;12.880;2023-03-16T02:31:01;2.05;;;1.95;;
78205;SDS011;67480;48.920;12.880;2023-03-16T02:33:27;2.63;;;1.65;;
78205;SDS011;67480;48.920;12.880;2023-03-16T02:35:56;3.33;;;1.80;;
78205;SDS011;67480;48.920;12.880;2023-03-16T02:38:21;6.30;;;2.05;;
78205;SDS011;67480;48.920;12.880;2023-03-16T02:40:53;2.05;;;1.73;;
78205;SDS011;67480;48.920;12.880;2023-03-16T02:43:24;3.30;;;1.70;;
78205;SDS011;67480;48.920;12.880;2023-03-16T02:45:57;2.13;;;1.98;;
78205;SDS011;67480;48.920;12.880;2023-03-16T02:51:14;2.67;;;1.73;;
78205;SDS011;67480;48.920;12.880;2023-03-16T02:53:39;2.42;;;2.22;;
78205;SDS011;67480;48.920;12.880;2023-03-16T02:56:05;2.00;;;1.80;;
78205;SDS011;67480;48.920;12.880;2023-03-16T02:58:30;2.20;;;2.00;;
78205;SDS011;67480;48.920;12.880;2023-03-16T03:00:56;2.63;;;2.00;;
78205;SDS011;67480;48.920;12.880;2023-03-16T03:03:21;2.95;;;1.77;;
78205;SDS011;67480;48.920;12.880;2023-03-16T03:05:47;2.08;;;1.95;;
78205;SDS011;67480;48.920;12.880;2023-03-16T03:08:12;2.20;;;2.08;;
78205;SDS011;67480;48.920;12.880;2023-03-16T03:10:38;2.10;;;1.90;;
78205;SDS011;67480;48.920;12.880;2023-03-16T03:13:04;2.70;;;1.85;;
78205;SDS011;67480;48.920;12.880;2023-03-16T03:15:31;2.38;;;2.17;;
78205;SDS011;67480;48.920;12.880;2023-03-16T03:17:57;2.35;;;2.13;;
78205;SDS011;67480;48.920;12.880;2023-03-16T03:20:23;1.80;;;1.70;;
78205;SDS011;67480;48.920;12.880;2023-03-16T03:22:48;2.53;;;2.03;;
78205;SDS011;67480;48.920;12.880;2023-03-16T03:25:17;2.15;;;1.88;;
78205;SDS011;67480;48.920;12.880;2023-03-16T03:27:43;2.42;;;1.83;;
78205;SDS011;67480;48.920;12.880;2023-03-16T03:30:10;2.20;;;2.00;;
78205;SDS011;67480;48.920;12.880;2023-03-16T03:32:38;1.80;;;1.70;;
78205;SDS011;67480;48.920;12.880;2023-03-16T03:35:04;2.58;;;1.83;;
78205;SDS011;67480;48.920;12.880;2023-03-16T03:37:30;2.80;;;2.00;;
78205;SDS011;67480;48.920;12.880;2023-03-16T03:39:55;2.10;;;1.90;;
78205;SDS011;67480;48.920;12.880;2023-03-16T03:42:21;1.95;;;1.83;;
78205;SDS011;67480;48.920;12.880;2023-03-16T03:44:48;3.40;;;2.00;;
78205;SDS011;67480;48.920;12.880;2023-03-16T03:47:14;4.25;;;2.25;;
78205;SDS011;67480;48.920;12.880;2023-03-16T03:49:39;3.28;;;2.17;;
78205;SDS011;67480;48.920;12.880;2023-03-16T03:52:04;2.35;;;2.00;;
78205;SDS011;67480;48.920;12.880;2023-03-16T03:54:30;1.90;;;1.80;;
78205;SDS011;67480;48.920;12.880;2023-03-16T03:56:55;6.00;;;4.35;;
78205;SDS011;67480;48.920;12.880;2023-03-16T03:59:21;4.03;;;3.53;;
78205;SDS011;67480;48.920;12.880;2023-03-16T04:01:46;3.40;;;2.88;;
78205;SDS011;67480;48.920;12.880;2023-03-16T04:04:13;10.65;;;4.97;;
78205;SDS011;67480;48.920;12.880;2023-03-16T04:06:38;4.38;;;3.20;;
78205;SDS011;67480;48.920;12.880;2023-03-16T04:09:04;4.03;;;2.70;;
78205;SDS011;67480;48.920;12.880;2023-03-16T04:11:29;3.10;;;2.83;;
78205;SDS011;67480;48.920;12.880;2023-03-16T04:13:54;3.33;;;2.65;;
78205;SDS011;67480;48.920;12.880;2023-03-16T04:16:20;3.70;;;3.13;;
78205;SDS011;67480;48.920;12.880;2023-03-16T04:18:46;4.50;;;3.30;;
78205;SDS011;67480;48.920;12.880;2023-03-16T04:21:13;2.70;;;2.50;;
78205;SDS011;67480;48.920;12.880;2023-03-16T04:23:40;2.70;;;2.50;;
78205;SDS011;67480;48.920;12.880;2023-03-16T04:26:06;2.35;;;1.95;;
78205;SDS011;67480;48.920;12.880;2023-03-16T04:28:31;3.97;;;1.88;;
78205;SDS011;67480;48.920;12.880;2023-03-16T04:31:00;2.30;;;2.10;;
78205;SDS011;67480;48.920;12.880;2023-03-16T04:33:31;2.25;;;2.05;;
78205;SDS011;67480;48.920;12.880;2023-03-16T04:35:57;2.50;;;2.30;;
78205;SDS011;67480;48.920;12.880;2023-03-16T04:38:22;2.40;;;2.28;;
78205;SDS011;67480;48.920;12.880;2023-03-16T04:40:47;2.80;;;2.38;;
78205;SDS011;67480;48.920;12.880;2023-03-16T04:43:13;2.35;;;2.15;;
78205;SDS011;67480;48.920;12.880;2023-03-16T04:45:38;2.70;;;2.42;;
78205;SDS011;67480;48.920;12.880;2023-03-16T04:48:03;5.35;;;2.92;;
78205;SDS011;67480;48.920;12.880;2023-03-16T04:50:29;3.83;;;2.13;;
78205;SDS011;67480;48.920;12.880;2023-03-16T04:52:55;4.07;;;2.53;;
78205;SDS011;67480;48.920;12.880;2023-03-16T04:55:20;2.70;;;2.50;;
78205;SDS011;67480;48.920;12.880;2023-03-16T04:57:46;5.85;;;3.80;;
78205;SDS011;67480;48.920;12.880;2023-03-16T05:00:12;3.55;;;2.00;;
78205;SDS011;67480;48.920;12.880;2023-03-16T05:02:44;2.45;;;1.88;;
78205;SDS011;67480;48.920;12.880;2023-03-16T05:05:10;4.72;;;2.05;;
78205;SDS011;67480;48.920;12.880;2023-03-16T05:07:35;3.70;;;2.65;;
78205;SDS011;67480;48.920;12.880;2023-03-16T05:10:01;2.60;;;2.28;;
78205;SDS011;67480;48.920;12.880;2023-03-16T05:12:27;3.30;;;2.30;;
78205;SDS011;67480;48.920;12.880;2023-03-16T05:14:52;2.72;;;2.13;;
78205;SDS011;67480;48.920;12.880;2023-03-16T05:17:17;2.28;;;1.80;;
78205;SDS011;67480;48.920;12.880;2023-03-16T05:19:43;4.95;;;3.00;;
78205;SDS011;67480;48.920;12.880;2023-03-16T05:22:09;6.45;;;4.32;;
78205;SDS011;67480;48.920;12.880;2023-03-16T05:24:34;15.75;;;8.80;;
78205;SDS011;67480;48.920;12.880;2023-03-16T05:27:01;11.18;;;7.80;;
78205;SDS011;67480;48.920;12.880;2023-03-16T05:29:27;5.30;;;4.57;;
78205;SDS011;67480;48.920;12.880;2023-03-16T05:31:53;3.85;;;2.83;;
78205;SDS011;67480;48.920;12.880;2023-03-16T05:34:18;2.90;;;2.63;;
78205;SDS011;67480;48.920;12.880;2023-03-16T05:36:44;3.45;;;2.80;;
78205;SDS011;67480;48.920;12.880;2023-03-16T05:39:09;4.90;;;3.10;;
78205;SDS011;67480;48.920;12.880;2023-03-16T05:41:34;3.20;;;2.35;;
78205;SDS011;67480;48.920;12.880;2023-03-16T05:44:00;3.28;;;2.58;;
78205;SDS011;67480;48.920;12.880;2023-03-16T05:46:25;2.25;;;2.15;;
78205;SDS011;67480;48.920;12.880;2023-03-16T05:48:50;2.92;;;2.00;;
78205;SDS011;67480;48.920;12.880;2023-03-16T05:51:16;1.95;;;1.85;;
78205;SDS011;67480;48.920;12.880;2023-03-16T05:53:41;2.65;;;2.08;;
78205;SDS011;67480;48.920;12.880;2023-03-16T05:56:06;2.75;;;1.90;;
78205;SDS011;67480;48.920;12.880;2023-03-16T05:58:32;2.40;;;1.80;;
78205;SDS011;67480;48.920;12.880;2023-03-16T06:01:00;2.70;;;2.25;;
78205;SDS011;67480;48.920;12.880;2023-03-16T06:03:26;3.42;;;2.63;;
78205;SDS011;67480;48.920;12.880;2023-03-16T06:05:51;4.18;;;3.10;;
78205;SDS011;67480;48.920;12.880;2023-03-16T06:08:17;2.97;;;2.70;;
78205;SDS011;67480;48.920;12.880;2023-03-16T06:10:43;4.95;;;3.42;;
78205;SDS011;67480;48.920;12.880;2023-03-16T06:13:10;3.90;;;3.25;;
78205;SDS011;67480;48.920;12.880;2023-03-16T06:15:36;3.15;;;2.83;;
78205;SDS011;67480;48.920;12.880;2023-03-16T06:18:01;6.95;;;5.22;;
78205;SDS011;67480;48.920;12.880;2023-03-16T06:20:26;5.05;;;4.28;;
78205;SDS011;67480;48.920;12.880;2023-03-16T06:22:51;6.57;;;4.50;;
78205;SDS011;67480;48.920;12.880;2023-03-16T06:25:17;5.85;;;4.28;;
78205;SDS011;67480;48.920;12.880;2023-03-16T06:27:42;5.63;;;4.65;;
78205;SDS011;67480;48.920;12.880;2023-03-16T06:30:10;4.18;;;3.78;;
78205;SDS011;67480;48.920;12.880;2023-03-16T06:32:36;4.63;;;3.03;;
78205;SDS011;67480;48.920;12.880;2023-03-16T06:35:02;3.75;;;2.75;;
78205;SDS011;67480;48.920;12.880;2023-03-16T06:37:28;5.18;;;3.38;;
78205;SDS011;67480;48.920;12.880;2023-03-16T06:39:54;4.57;;;3.30;;
78205;SDS011;67480;48.920;12.880;2023-03-16T06:42:19;3.92;;;3.13;;
78205;SDS011;67480;48.920;12.880;2023-03-16T06:44:45;4.10;;;3.10;;
78205;SDS011;67480;48.920;12.880;2023-03-16T06:47:10;5.20;;;3.33;;
78205;SDS011;67480;48.920;12.880;2023-03-16T06:49:36;4.18;;;3.13;;
78205;SDS011;67480;48.920;12.880;2023-03-16T06:52:01;8.27;;;4.55;;
78205;SDS011;67480;48.920;12.880;2023-03-16T06:54:27;8.85;;;5.35;;
78205;SDS011;67480;48.920;12.880;2023-03-16T06:56:53;7.00;;;4.80;;
78205;SDS011;67480;48.920;12.880;2023-03-16T06:59:18;10.38;;;5.50;;
78205;SDS011;67480;48.920;12.880;2023-03-16T07:01:44;11.82;;;7.53;;
78205;SDS011;67480;48.920;12.880;2023-03-16T07:04:09;10.52;;;6.32;;
78205;SDS011;67480;48.920;12.880;2023-03-16T07:06:36;5.78;;;4.72;;
78205;SDS011;67480;48.920;12.880;2023-03-16T07:09:02;6.70;;;3.75;;
78205;SDS011;67480;48.920;12.880;2023-03-16T07:11:29;4.22;;;2.92;;
78205;SDS011;67480;48.920;12.880;2023-03-16T07:13:54;4.85;;;4.10;;
78205;SDS011;67480;48.920;12.880;2023-03-16T07:16:19;4.18;;;3.30;;
78205;SDS011;67480;48.920;12.880;2023-03-16T07:18:45;4.03;;;3.63;;
78205;SDS011;67480;48.920;12.880;2023-03-16T07:21:11;5.85;;;4.10;;
78205;SDS011;67480;48.920;12.880;2023-03-16T07:23:36;4.72;;;4.10;;
78205;SDS011;67480;48.920;12.880;2023-03-16T07:26:01;4.18;;;3.65;;
78205;SDS011;67480;48.920;12.880;2023-03-16T07:28:27;6.53;;;4.28;;
78205;SDS011;67480;48.920;12.880;2023-03-16T07:30:53;4.43;;;3.40;;
78205;SDS011;67480;48.920;12.880;2023-03-16T07:33:19;3.55;;;3.25;;
78205;SDS011;67480;48.920;12.880;2023-03-16T07:35:44;3.72;;;3.42;;
78205;SDS011;67480;48.920;12.880;2023-03-16T07:38:10;6.72;;;4.55;;
78205;SDS011;67480;48.920;12.880;2023-03-16T07:40:36;6.80;;;4.80;;
78205;SDS011;67480;48.920;12.880;2023-03-16T07:43:03;4.82;;;4.32;;
78205;SDS011;67480;48.920;12.880;2023-03-16T07:45:28;4.85;;;3.53;;
78205;SDS011;67480;48.920;12.880;2023-03-16T07:47:54;3.95;;;3.33;;
78205;SDS011;67480;48.920;12.880;2023-03-16T07:50:20;5.07;;;3.25;;
78205;SDS011;67480;48.920;12.880;2023-03-16T07:52:46;3.35;;;3.00;;
78205;SDS011;67480;48.920;12.880;2023-03-16T07:55:11;3.05;;;2.75;;
78205;SDS011;67480;48.920;12.880;2023-03-16T07:57:37;5.35;;;3.20;;
78205;SDS011;67480;48.920;12.880;2023-03-16T08:00:07;3.42;;;3.03;;
78205;SDS011;67480;48.920;12.880;2023-03-16T08:02:33;3.70;;;3.30;;
78205;SDS011;67480;48.920;12.880;2023-03-16T08:04:58;3.10;;;2.72;;
78205;SDS011;67480;48.920;12.880;2023-03-16T08:07:24;4.03;;;3.05;;
78205;SDS011;67480;48.920;12.880;2023-03-16T08:09:50;3.30;;;3.00;;
78205;SDS011;67480;48.920;12.880;2023-03-16T08:12:16;3.22;;;2.90;;
78205;SDS011;67480;48.920;12.880;2023-03-16T08:14:41;4.20;;;2.80;;
78205;SDS011;67480;48.920;12.880;2023-03-16T08:17:10;2.95;;;2.60;;
78205;SDS011;67480;48.920;12.880;2023-03-16T08:19:39;4.50;;;3.35;;
78205;SDS011;67480;48.920;12.880;2023-03-16T08:22:04;5.85;;;3.40;;
78205;SDS011;67480;48.920;12.880;2023-03-16T08:24:30;5.05;;;3.40;;
78205;SDS011;67480;48.920;12.880;2023-03-16T08:26:56;4.68;;;4.15;;
78205;SDS011;67480;48.920;12.880;2023-03-16T08:29:23;5.43;;;4.30;;
78205;SDS011;67480;48.920;12.880;2023-03-16T08:31:51;4.07;;;3.67;;
78205;SDS011;67480;48.920;12.880;2023-03-16T08:34:17;5.22;;;3.85;;
78205;SDS011;67480;48.920;12.880;2023-03-16T08:36:43;6.43;;;4.53;;
78205;SDS011;67480;48.920;12.880;2023-03-16T08:39:08;7.00;;;6.00;;
78205;SDS011;67480;48.920;12.880;2023-03-16T08:41:34;9.35;;;7.43;;
78205;SDS011;67480;48.920;12.880;2023-03-16T08:43:59;6.50;;;5.53;;
78205;SDS011;67480;48.920;12.880;2023-03-16T08:46:25;8.25;;;6.90;;
78205;SDS011;67480;48.920;12.880;2023-03-16T08:48:51;6.28;;;5.68;;
78205;SDS011;67480;48.920;12.880;2023-03-16T08:51:16;7.05;;;6.28;;
78205;SDS011;67480;48.920;12.880;2023-03-16T08:53:43;7.05;;;5.95;;
78205;SDS011;67480;48.920;12.880;2023-03-16T08:56:10;5.60;;;4.50;;
78205;SDS011;67480;48.920;12.880;2023-03-16T08:58:36;4.20;;;3.72;;
78205;SDS011;67480;48.920;12.880;2023-03-16T09:01:03;5.53;;;4.05;;
78205;SDS011;67480;48.920;12.880;2023-03-16T09:03:30;5.05;;;4.45;;
78205;SDS011;67480;48.920;12.880;2023-03-16T09:06:03;4.70;;;4.30;;
78205;SDS011;67480;48.920;12.880;2023-03-16T09:08:30;3.60;;;3.10;;
78205;SDS011;67480;48.920;12.880;2023-03-16T09:13:27;3.75;;;3.45;;
78205;SDS011;67480;48.920;12.880;2023-03-16T09:15:53;3.33;;;3.03;;
78205;SDS011;67480;48.920;12.880;2023-03-16T09:18:18;5.22;;;2.90;;
78205;SDS011;67480;48.920;12.880;2023-03-16T09:20:44;3.30;;;3.00;;
78205;SDS011;67480;48.920;12.880;2023-03-16T09:23:11;3.47;;;3.05;;
78205;SDS011;67480;48.920;12.880;2023-03-16T09:25:37;3.67;;;2.92;;
78205;SDS011;67480;48.920;12.880;2023-03-16T09:28:03;3.97;;;3.58;;
78205;SDS011;67480;48.920;12.880;2023-03-16T09:30:29;4.68;;;3.63;;
78205;SDS011;67480;48.920;12.880;2023-03-16T09:32:54;2.97;;;2.72;;
78205;SDS011;67480;48.920;12.880;2023-03-16T09:35:20;5.18;;;3.55;;
78205;SDS011;67480;48.920;12.880;2023-03-16T09:37:46;3.72;;;3.13;;
78205;SDS011;67480;48.920;12.880;2023-03-16T09:40:21;4.63;;;3.17;;
78205;SDS011;67480;48.920;12.880;2023-03-16T09:42:53;3.53;;;3.05;;
78205;SDS011;67480;48.920;12.880;2023-03-16T09:45:33;3.28;;;2.70;;
78205;SDS011;67480;48.920;12.880;2023-03-16T09:48:00;2.88;;;2.50;;
78205;SDS011;67480;48.920;12.880;2023-03-16T09:50:30;3.42;;;2.70;;
78205;SDS011;67480;48.920;12.880;2023-03-16T09:56:03;3.55;;;2.70;;
78205;SDS011;67480;48.920;12.880;2023-03-16T09:58:39;4.00;;;2.83;;
78205;SDS011;67480;48.920;12.880;2023-03-16T10:06:16;2.42;;;1.85;;
78205;SDS011;67480;48.920;12.880;2023-03-16T10:08:42;2.40;;;1.90;;
78205;SDS011;67480;48.920;12.880;2023-03-16T10:16:56;2.50;;;2.30;;
78205;SDS011;67480;48.920;12.880;2023-03-16T10:19:28;3.55;;;2.20;;
78205;SDS011;67480;48.920;12.880;2023-03-16T10:22:01;2.03;;;1.80;;
78205;SDS011;67480;48.920;12.880;2023-03-16T10:24:40;1.88;;;1.65;;
78205;SDS011;67480;48.920;12.880;2023-03-16T10:27:12;2.22;;;2.00;;
78205;SDS011;67480;48.920;12.880;2023-03-16T10:29:43;2.70;;;1.90;;
78205;SDS011;67480;48.920;12.880;2023-03-16T10:32:13;4.50;;;3.30;;
78205;SDS011;67480;48.920;12.880;2023-03-16T10:34:41;3.20;;;2.10;;
78205;SDS011;67480;48.920;12.880;2023-03-16T10:37:10;3.30;;;1.73;;
78205;SDS011;67480;48.920;12.880;2023-03-16T10:39:38;2.28;;;1.98;;
78205;SDS011;67480;48.920;12.880;2023-03-16T10:42:08;2.97;;;2.38;;
78205;SDS011;67480;48.920;12.880;2023-03-16T10:44:40;1.73;;;1.63;;
78205;SDS011;67480;48.920;12.880;2023-03-16T10:47:06;2.35;;;1.80;;
78205;SDS011;67480;48.920;12.880;2023-03-16T10:49:42;3.63;;;2.40;;
78205;SDS011;67480;48.920;12.880;2023-03-16T10:54:57;2.28;;;2.10;;
78205;SDS011;67480;48.920;12.880;2023-03-16T10:57:29;2.17;;;1.65;;
78205;SDS011;67480;48.920;12.880;2023-03-16T10:59:59;3.38;;;1.85;;
78205;SDS011;67480;48.920;12.880;2023-03-16T11:02:33;3.78;;;2.60;;
78205;SDS011;67480;48.920;12.880;2023-03-16T11:05:10;3.05;;;2.60;;
78205;SDS011;67480;48.920;12.880;2023-03-16T11:07:54;3.10;;;2.80;;
78205;SDS011;67480;48.920;12.880;2023-03-16T11:10:29;2.22;;;1.98;;
78205;SDS011;67480;48.920;12.880;2023-03-16T11:15:35;3.25;;;2.17;;
78205;SDS011;67480;48.920;12.880;2023-03-16T11:18:03;2.28;;;1.92;;
78205;SDS011;67480;48.920;12.880;2023-03-16T11:20:31;2.00;;;1.80;;
78205;SDS011;67480;48.920;12.880;2023-03-16T11:22:59;2.40;;;2.20;;
78205;SDS011;67480;48.920;12.880;2023-03-16T11:25:30;2.63;;;2.00;;
78205;SDS011;67480;48.920;12.880;2023-03-16T11:28:16;2.85;;;2.20;;
78205;SDS011;67480;48.920;12.880;2023-03-16T11:31:07;2.22;;;2.03;;
78205;SDS011;67480;48.920;12.880;2023-03-16T11:33:43;2.13;;;1.92;;
78205;SDS011;67480;48.920;12.880;2023-03-16T11:39:13;2.10;;;1.90;;
78205;SDS011;67480;48.920;12.880;2023-03-16T11:49:48;3.05;;;1.90;;
78205;SDS011;67480;48.920;12.880;2023-03-16T11:52:27;2.20;;;1.95;;
78205;SDS011;67480;48.920;12.880;2023-03-16T11:55:05;2.67;;;1.80;;
78205;SDS011;67480;48.920;12.880;2023-03-16T11:57:45;2.47;;;2.00;;
78205;SDS011;67480;48.920;12.880;2023-03-16T12:00:39;3.53;;;1.92;;
78205;SDS011;67480;48.920;12.880;2023-03-16T12:03:13;2.55;;;1.90;;
78205;SDS011;67480;48.920;12.880;2023-03-16T12:11:37;2.20;;;2.00;;
78205;SDS011;67480;48.920;12.880;2023-03-16T12:17:28;1.30;;;1.20;;
78205;SDS011;67480;48.920;12.880;2023-03-16T12:19:59;2.67;;;2.20;;
78205;SDS011;67480;48.920;12.880;2023-03-16T12:22:34;1.40;;;1.30;;
78205;SDS011;67480;48.920;12.880;2023-03-16T12:25:11;1.30;;;1.20;;
78205;SDS011;67480;48.920;12.880;2023-03-16T12:27:41;2.53;;;1.55;;
78205;SDS011;67480;48.920;12.880;2023-03-16T12:33:30;1.60;;;1.50;;
78205;SDS011;67480;48.920;12.880;2023-03-16T12:36:33;2.28;;;1.88;;
78205;SDS011;67480;48.920;12.880;2023-03-16T12:44:31;1.70;;;1.50;;
78205;SDS011;67480;48.920;12.880;2023-03-16T12:46:59;3.72;;;1.40;;
78205;SDS011;67480;48.920;12.880;2023-03-16T12:49:29;1.55;;;1.30;;
78205;SDS011;67480;48.920;12.880;2023-03-16T12:52:01;1.83;;;1.33;;
78205;SDS011;67480;48.920;12.880;2023-03-16T12:54:31;1.63;;;1.30;;
78205;SDS011;67480;48.920;12.880;2023-03-16T12:57:07;1.35;;;1.25;;
78205;SDS011;67480;48.920;12.880;2023-03-16T12:59:39;1.65;;;1.20;;
78205;SDS011;67480;48.920;12.880;2023-03-16T13:02:14;1.52;;;1.27;;
78205;SDS011;67480;48.920;12.880;2023-03-16T13:04:44;1.92;;;1.55;;
78205;SDS011;67480;48.920;12.880;2023-03-16T13:07:16;2.15;;;1.50;;
78205;SDS011;67480;48.920;12.880;2023-03-16T13:09:45;2.42;;;1.35;;
78205;SDS011;67480;48.920;12.880;2023-03-16T13:12:23;1.42;;;1.33;;
78205;SDS011;67480;48.920;12.880;2023-03-16T13:14:51;2.10;;;1.20;;
78205;SDS011;67480;48.920;12.880;2023-03-16T13:19:44;2.10;;;1.20;;
78205;SDS011;67480;48.920;12.880;2023-03-16T13:22:44;1.83;;;1.50;;
78205;SDS011;67480;48.920;12.880;2023-03-16T13:25:34;1.40;;;1.30;;
78205;SDS011;67480;48.920;12.880;2023-03-16T13:28:07;1.60;;;1.40;;
78205;SDS011;67480;48.920;12.880;2023-03-16T13:30:39;1.10;;;1.00;;
78205;SDS011;67480;48.920;12.880;2023-03-16T13:33:32;1.52;;;1.42;;
78205;SDS011;67480;48.920;12.880;2023-03-16T13:36:01;1.52;;;1.42;;
78205;SDS011;67480;48.920;12.880;2023-03-16T13:38:28;1.70;;;1.40;;
78205;SDS011;67480;48.920;12.880;2023-03-16T13:41:04;2.33;;;1.42;;
78205;SDS011;67480;48.920;12.880;2023-03-16T13:43:37;1.20;;;1.10;;
78205;SDS011;67480;48.920;12.880;2023-03-16T13:46:12;1.63;;;1.50;;
78205;SDS011;67480;48.920;12.880;2023-03-16T13:51:09;1.30;;;1.20;;
78205;SDS011;67480;48.920;12.880;2023-03-16T13:53:39;1.90;;;1.27;;
78205;SDS011;67480;48.920;12.880;2023-03-16T13:56:06;2.75;;;1.50;;
78205;SDS011;67480;48.920;12.880;2023-03-16T13:58:37;2.40;;;1.30;;
78205;SDS011;67480;48.920;12.880;2023-03-16T14:01:04;2.95;;;1.20;;
78205;SDS011;67480;48.920;12.880;2023-03-16T14:03:43;1.30;;;1.20;;
78205;SDS011;67480;48.920;12.880;2023-03-16T14:09:16;2.33;;;1.30;;
78205;SDS011;67480;48.920;12.880;2023-03-16T14:11:46;2.15;;;1.60;;
78205;SDS011;67480;48.920;12.880;2023-03-16T14:14:18;1.60;;;1.40;;
78205;SDS011;67480;48.920;12.880;2023-03-16T14:16:58;1.63;;;1.40;;
78205;SDS011;67480;48.920;12.880;2023-03-16T14:19:26;1.20;;;1.02;;
78205;SDS011;67480;48.920;12.880;2023-03-16T14:22:02;1.33;;;1.10;;
78205;SDS011;67480;48.920;12.880;2023-03-16T14:24:30;1.85;;;1.10;;
78205;SDS011;67480;48.920;12.880;2023-03-16T14:27:21;1.85;;;1.20;;
78205;SDS011;67480;48.920;12.880;2023-03-16T14:29:49;2.30;;;1.30;;
78205;SDS011;67480;48.920;12.880;2023-03-16T14:32:19;1.63;;;1.30;;
78205;SDS011;67480;48.920;12.880;2023-03-16T14:34:50;2.97;;;1.30;;
78205;SDS011;67480;48.920;12.880;2023-03-16T14:37:16;1.60;;;1.40;;
78205;SDS011;67480;48.920;12.880;2023-03-16T14:39:43;1.38;;;1.27;;
78205;SDS011;67480;48.920;12.880;2023-03-16T14:42:20;1.10;;;1.00;;
78205;SDS011;67480;48.920;12.880;2023-03-16T14:44:52;1.65;;;1.40;;
78205;SDS011;67480;48.920;12.880;2023-03-16T14:47:20;1.67;;;1.38;;
78205;SDS011;67480;48.920;12.880;2023-03-16T14:49:48;2.10;;;1.38;;
78205;SDS011;67480;48.920;12.880;2023-03-16T14:52:20;2.15;;;1.38;;
78205;SDS011;67480;48.920;12.880;2023-03-16T14:54:51;1.30;;;1.05;;
78205;SDS011;67480;48.920;12.880;2023-03-16T14:57:17;1.55;;;1.20;;
78205;SDS011;67480;48.920;12.880;2023-03-16T14:59:43;1.70;;;1.40;;
78205;SDS011;67480;48.920;12.880;2023-03-16T15:02:13;2.80;;;1.30;;
78205;SDS011;67480;48.920;12.880;2023-03-16T15:04:41;1.00;;;0.98;;
78205;SDS011;67480;48.920;12.880;2023-03-16T15:12:31;1.30;;;1.10;;
78205;SDS011;67480;48.920;12.880;2023-03-16T15:14:58;1.40;;;1.08;;
78205;SDS011;67480;48.920;12.880;2023-03-16T15:17:40;2.00;;;1.20;;
78205;SDS011;67480;48.920;12.880;2023-03-16T15:20:08;1.38;;;1.23;;
78205;SDS011;67480;48.920;12.880;2023-03-16T15:22:36;1.20;;;1.10;;
78205;SDS011;67480;48.920;12.880;2023-03-16T15:25:10;2.72;;;1.23;;
78205;SDS011;67480;48.920;12.880;2023-03-16T15:27:42;1.38;;;1.13;;
78205;SDS011;67480;48.920;12.880;2023-03-16T15:30:18;1.10;;;1.10;;
78205;SDS011;67480;48.920;12.880;2023-03-16T15:32:48;1.35;;;1.13;;
78205;SDS011;67480;48.920;12.880;2023-03-16T15:35:13;1.50;;;1.40;;
78205;SDS011;67480;48.920;12.880;2023-03-16T15:37:39;2.92;;;2.15;;
78205;SDS011;67480;48.920;12.880;2023-03-16T15:40:15;1.40;;;1.30;;
78205;SDS011;67480;48.920;12.880;2023-03-16T15:42:43;2.00;;;1.20;;
78205;SDS011;67480;48.920;12.880;2023-03-16T15:45:12;1.40;;;1.30;;
78205;SDS011;67480;48.920;12.880;2023-03-16T15:47:41;1.50;;;1.13;;
78205;SDS011;67480;48.920;12.880;2023-03-16T15:50:08;1.88;;;1.33;;